MMPR

Licenciado Gustavo Díaz Ordaz International Airport

Puerto Vallarta, Mexico
TAF MMPR 210359Z 2106/2212 34005KT P6SM SKC TX28/2119Z TN19/2112Z FM211800 23012KT PSM SCT080 BKN250 FM220600 34005KT P6SM SKC
Issued Valid From Valid To
Apr-21 @ 03:59 UTC
(5 hours ago)
Apr-21 @ 06:00 UTC
(3 hours ago)
Apr-22 @ 12:00 UTC
(-1 days ago)
Apr-21 @ 06:00 to Apr-21 @ 18:00
TAF MMPR 210359Z 2106/2212 34005KT P6SM SKC TX28/2119Z TN19/2112Z
Wind Visibility Clouds
340° at 5 knots Greater than 6 miles
  • Clear skies
From Apr-21 @ 18:00 to Apr-22 @ 06:00
FM211800 23012KT PSM SCT080 BKN250
Wind Clouds
230° at 12 knots
  • Scattered at 8,000' AGL
  • Broken at 25,000' AGL
From Apr-22 @ 06:00 to Apr-22 @ 12:00
FM220600 34005KT P6SM SKC
Wind Visibility Clouds
340° at 5 knots Greater than 6 miles
  • Clear skies
TAF MMPR 210359Z 2106/2212 34005KT P6SM SKC TX28/2119Z TN19/2112Z FM211800 23012KT PSM SCT080 BKN250 FM220600 34005KT P6SM SKC
Issued Apr-21 @ 03:59 UTC
(5 hours ago)
Valid From Apr-21 @ 06:00 UTC
(3 hours ago)
Valid To Apr-22 @ 12:00 UTC
(-1 days ago)
Apr-21 @ 06:00 - Apr-21 @ 18:00
Wind Visibility
340° at 5 knots Greater than 6 miles
Clouds
  • Clear skies
From Apr-21 @ 18:00 - Apr-22 @ 06:00
Wind
230° at 12 knots
Clouds
  • Scattered at 8,000' AGL
  • Broken at 25,000' AGL
From Apr-22 @ 06:00 - Apr-22 @ 12:00
Wind Visibility
340° at 5 knots Greater than 6 miles
Clouds
  • Clear skies